sensor_id;sensor_type;location;lat;lon;timestamp;P1;durP1;ratioP1;P2;durP2;ratioP2
7195;SDS011;3639;51.308;5.624;2022-11-20T00:01:06;14.27;;;9.00;;
7195;SDS011;3639;51.308;5.624;2022-11-20T00:03:40;15.50;;;8.90;;
7195;SDS011;3639;51.308;5.624;2022-11-20T00:06:06;17.03;;;9.80;;
7195;SDS011;3639;51.308;5.624;2022-11-20T00:08:34;12.10;;;8.10;;
7195;SDS011;3639;51.308;5.624;2022-11-20T00:11:16;14.53;;;8.63;;
7195;SDS011;3639;51.308;5.624;2022-11-20T00:13:44;14.43;;;9.03;;
7195;SDS011;3639;51.308;5.624;2022-11-20T00:16:11;13.80;;;8.77;;
7195;SDS011;3639;51.308;5.624;2022-11-20T00:18:38;15.47;;;9.40;;
7195;SDS011;3639;51.308;5.624;2022-11-20T00:21:09;14.90;;;9.17;;
7195;SDS011;3639;51.308;5.624;2022-11-20T00:23:46;12.57;;;8.47;;
7195;SDS011;3639;51.308;5.624;2022-11-20T00:26:12;12.67;;;8.80;;
7195;SDS011;3639;51.308;5.624;2022-11-20T00:28:40;16.40;;;8.67;;
7195;SDS011;3639;51.308;5.624;2022-11-20T00:31:08;15.53;;;8.60;;
7195;SDS011;3639;51.308;5.624;2022-11-20T00:33:37;16.13;;;8.90;;
7195;SDS011;3639;51.308;5.624;2022-11-20T00:36:10;13.40;;;8.97;;
7195;SDS011;3639;51.308;5.624;2022-11-20T00:38:37;16.67;;;9.47;;
7195;SDS011;3639;51.308;5.624;2022-11-20T00:41:04;14.30;;;8.83;;
7195;SDS011;3639;51.308;5.624;2022-11-20T00:43:31;14.57;;;9.37;;
7195;SDS011;3639;51.308;5.624;2022-11-20T00:46:01;16.20;;;8.27;;
7195;SDS011;3639;51.308;5.624;2022-11-20T00:48:29;19.40;;;10.07;;
7195;SDS011;3639;51.308;5.624;2022-11-20T00:50:55;19.20;;;10.00;;
7195;SDS011;3639;51.308;5.624;2022-11-20T00:53:21;19.80;;;10.07;;
7195;SDS011;3639;51.308;5.624;2022-11-20T00:55:56;17.27;;;9.17;;
7195;SDS011;3639;51.308;5.624;2022-11-20T00:58:33;15.33;;;8.90;;
7195;SDS011;3639;51.308;5.624;2022-11-20T01:01:07;12.57;;;8.73;;
7195;SDS011;3639;51.308;5.624;2022-11-20T01:03:35;15.83;;;8.40;;
7195;SDS011;3639;51.308;5.624;2022-11-20T01:06:03;15.77;;;8.40;;
7195;SDS011;3639;51.308;5.624;2022-11-20T01:08:31;16.30;;;9.27;;
7195;SDS011;3639;51.308;5.624;2022-11-20T01:10:59;13.60;;;10.00;;
7195;SDS011;3639;51.308;5.624;2022-11-20T01:13:26;17.00;;;10.33;;
7195;SDS011;3639;51.308;5.624;2022-11-20T01:18:38;17.30;;;9.63;;
7195;SDS011;3639;51.308;5.624;2022-11-20T01:21:05;15.00;;;9.07;;
7195;SDS011;3639;51.308;5.624;2022-11-20T01:23:34;16.00;;;8.93;;
7195;SDS011;3639;51.308;5.624;2022-11-20T01:26:01;15.70;;;8.53;;
7195;SDS011;3639;51.308;5.624;2022-11-20T01:28:28;13.77;;;8.97;;
7195;SDS011;3639;51.308;5.624;2022-11-20T01:30:54;15.60;;;9.23;;
7195;SDS011;3639;51.308;5.624;2022-11-20T01:33:20;16.50;;;9.57;;
7195;SDS011;3639;51.308;5.624;2022-11-20T01:35:45;19.60;;;10.37;;
7195;SDS011;3639;51.308;5.624;2022-11-20T01:38:11;15.70;;;10.20;;
7195;SDS011;3639;51.308;5.624;2022-11-20T01:40:37;18.83;;;10.67;;
7195;SDS011;3639;51.308;5.624;2022-11-20T01:43:18;19.07;;;11.27;;
7195;SDS011;3639;51.308;5.624;2022-11-20T01:49:18;13.77;;;8.53;;
7195;SDS011;3639;51.308;5.624;2022-11-20T01:51:50;14.70;;;9.27;;
7195;SDS011;3639;51.308;5.624;2022-11-20T01:54:25;15.60;;;9.63;;
7195;SDS011;3639;51.308;5.624;2022-11-20T01:56:58;18.63;;;9.37;;
7195;SDS011;3639;51.308;5.624;2022-11-20T01:59:25;14.40;;;9.87;;
7195;SDS011;3639;51.308;5.624;2022-11-20T02:01:52;16.77;;;9.57;;
7195;SDS011;3639;51.308;5.624;2022-11-20T02:04:18;15.20;;;9.57;;
7195;SDS011;3639;51.308;5.624;2022-11-20T02:06:50;15.13;;;9.27;;
7195;SDS011;3639;51.308;5.624;2022-11-20T02:09:24;18.00;;;9.23;;
7195;SDS011;3639;51.308;5.624;2022-11-20T02:11:50;17.00;;;9.80;;
7195;SDS011;3639;51.308;5.624;2022-11-20T02:14:16;15.13;;;10.30;;
7195;SDS011;3639;51.308;5.624;2022-11-20T02:16:46;14.03;;;9.00;;
7195;SDS011;3639;51.308;5.624;2022-11-20T02:19:16;15.17;;;9.70;;
7195;SDS011;3639;51.308;5.624;2022-11-20T02:24:49;17.13;;;9.70;;
7195;SDS011;3639;51.308;5.624;2022-11-20T02:27:16;21.83;;;10.20;;
7195;SDS011;3639;51.308;5.624;2022-11-20T02:29:57;18.90;;;10.17;;
7195;SDS011;3639;51.308;5.624;2022-11-20T02:32:30;15.13;;;9.80;;
7195;SDS011;3639;51.308;5.624;2022-11-20T02:35:05;16.07;;;9.13;;
7195;SDS011;3639;51.308;5.624;2022-11-20T02:37:54;14.10;;;9.93;;
7195;SDS011;3639;51.308;5.624;2022-11-20T02:40:21;15.27;;;9.23;;
7195;SDS011;3639;51.308;5.624;2022-11-20T02:42:48;15.90;;;9.00;;
7195;SDS011;3639;51.308;5.624;2022-11-20T02:45:17;15.50;;;9.13;;
7195;SDS011;3639;51.308;5.624;2022-11-20T02:47:42;17.80;;;10.20;;
7195;SDS011;3639;51.308;5.624;2022-11-20T02:50:08;17.70;;;10.23;;
7195;SDS011;3639;51.308;5.624;2022-11-20T02:52:34;15.13;;;8.83;;
7195;SDS011;3639;51.308;5.624;2022-11-20T02:55:00;16.27;;;9.40;;
7195;SDS011;3639;51.308;5.624;2022-11-20T02:57:25;20.47;;;10.00;;
7195;SDS011;3639;51.308;5.624;2022-11-20T02:59:51;14.13;;;9.60;;
7195;SDS011;3639;51.308;5.624;2022-11-20T03:02:17;13.43;;;8.50;;
7195;SDS011;3639;51.308;5.624;2022-11-20T03:04:42;13.10;;;8.50;;
7195;SDS011;3639;51.308;5.624;2022-11-20T03:07:08;15.87;;;9.17;;
7195;SDS011;3639;51.308;5.624;2022-11-20T03:09:34;12.30;;;9.03;;
7195;SDS011;3639;51.308;5.624;2022-11-20T03:12:00;15.17;;;9.77;;
7195;SDS011;3639;51.308;5.624;2022-11-20T03:14:25;19.13;;;10.33;;
7195;SDS011;3639;51.308;5.624;2022-11-20T03:16:51;19.20;;;9.87;;
7195;SDS011;3639;51.308;5.624;2022-11-20T03:19:17;17.57;;;9.97;;
7195;SDS011;3639;51.308;5.624;2022-11-20T03:21:43;16.30;;;9.07;;
7195;SDS011;3639;51.308;5.624;2022-11-20T03:24:08;12.87;;;8.83;;
7195;SDS011;3639;51.308;5.624;2022-11-20T03:26:34;14.97;;;9.43;;
7195;SDS011;3639;51.308;5.624;2022-11-20T03:29:01;15.73;;;9.33;;
7195;SDS011;3639;51.308;5.624;2022-11-20T03:31:33;15.77;;;9.13;;
7195;SDS011;3639;51.308;5.624;2022-11-20T03:34:01;19.03;;;9.37;;
7195;SDS011;3639;51.308;5.624;2022-11-20T03:36:27;16.93;;;9.57;;
7195;SDS011;3639;51.308;5.624;2022-11-20T03:38:54;14.83;;;9.47;;
7195;SDS011;3639;51.308;5.624;2022-11-20T03:41:21;12.23;;;7.87;;
7195;SDS011;3639;51.308;5.624;2022-11-20T03:43:48;16.70;;;9.57;;
7195;SDS011;3639;51.308;5.624;2022-11-20T03:46:15;14.13;;;9.20;;
7195;SDS011;3639;51.308;5.624;2022-11-20T03:48:41;13.83;;;9.73;;
7195;SDS011;3639;51.308;5.624;2022-11-20T03:51:07;12.87;;;9.10;;
7195;SDS011;3639;51.308;5.624;2022-11-20T03:53:44;13.37;;;9.07;;
7195;SDS011;3639;51.308;5.624;2022-11-20T03:56:11;16.43;;;9.30;;
7195;SDS011;3639;51.308;5.624;2022-11-20T03:58:39;16.30;;;9.40;;
7195;SDS011;3639;51.308;5.624;2022-11-20T04:01:06;11.83;;;8.37;;
7195;SDS011;3639;51.308;5.624;2022-11-20T04:03:32;17.10;;;8.50;;
7195;SDS011;3639;51.308;5.624;2022-11-20T04:06:02;17.23;;;9.10;;
7195;SDS011;3639;51.308;5.624;2022-11-20T04:08:32;14.77;;;9.43;;
7195;SDS011;3639;51.308;5.624;2022-11-20T04:11:09;13.00;;;9.30;;
7195;SDS011;3639;51.308;5.624;2022-11-20T04:13:37;13.93;;;9.17;;
7195;SDS011;3639;51.308;5.624;2022-11-20T04:16:04;15.13;;;9.03;;
7195;SDS011;3639;51.308;5.624;2022-11-20T04:18:31;18.07;;;9.67;;
7195;SDS011;3639;51.308;5.624;2022-11-20T04:20:57;13.70;;;8.80;;
7195;SDS011;3639;51.308;5.624;2022-11-20T04:23:24;18.10;;;9.90;;
7195;SDS011;3639;51.308;5.624;2022-11-20T04:25:50;14.50;;;9.10;;
7195;SDS011;3639;51.308;5.624;2022-11-20T04:28:15;21.63;;;10.00;;
7195;SDS011;3639;51.308;5.624;2022-11-20T04:30:41;16.83;;;9.37;;
7195;SDS011;3639;51.308;5.624;2022-11-20T04:33:07;17.40;;;10.47;;
7195;SDS011;3639;51.308;5.624;2022-11-20T04:35:36;14.70;;;10.00;;
7195;SDS011;3639;51.308;5.624;2022-11-20T04:38:02;14.03;;;9.17;;
7195;SDS011;3639;51.308;5.624;2022-11-20T04:40:29;17.53;;;10.33;;
7195;SDS011;3639;51.308;5.624;2022-11-20T04:42:56;17.17;;;9.23;;
7195;SDS011;3639;51.308;5.624;2022-11-20T04:45:22;16.13;;;10.50;;
7195;SDS011;3639;51.308;5.624;2022-11-20T04:47:48;19.97;;;10.10;;
7195;SDS011;3639;51.308;5.624;2022-11-20T04:50:14;15.27;;;9.40;;
7195;SDS011;3639;51.308;5.624;2022-11-20T04:52:40;15.87;;;8.97;;
7195;SDS011;3639;51.308;5.624;2022-11-20T04:55:06;14.60;;;9.10;;
7195;SDS011;3639;51.308;5.624;2022-11-20T04:57:32;14.77;;;9.30;;
7195;SDS011;3639;51.308;5.624;2022-11-20T04:59:58;19.70;;;10.70;;
7195;SDS011;3639;51.308;5.624;2022-11-20T05:02:23;16.57;;;8.93;;
7195;SDS011;3639;51.308;5.624;2022-11-20T05:04:49;15.47;;;9.40;;
7195;SDS011;3639;51.308;5.624;2022-11-20T05:07:14;19.43;;;9.37;;
7195;SDS011;3639;51.308;5.624;2022-11-20T05:09:40;15.57;;;9.50;;
7195;SDS011;3639;51.308;5.624;2022-11-20T05:12:09;13.50;;;9.27;;
7195;SDS011;3639;51.308;5.624;2022-11-20T05:14:35;16.70;;;10.33;;
7195;SDS011;3639;51.308;5.624;2022-11-20T05:17:00;13.77;;;9.00;;
7195;SDS011;3639;51.308;5.624;2022-11-20T05:19:26;18.20;;;10.63;;
7195;SDS011;3639;51.308;5.624;2022-11-20T05:21:52;14.37;;;8.77;;
7195;SDS011;3639;51.308;5.624;2022-11-20T05:24:17;14.10;;;9.07;;
7195;SDS011;3639;51.308;5.624;2022-11-20T05:26:43;15.63;;;9.37;;
7195;SDS011;3639;51.308;5.624;2022-11-20T05:29:12;17.07;;;9.43;;
7195;SDS011;3639;51.308;5.624;2022-11-20T05:31:38;15.10;;;9.33;;
7195;SDS011;3639;51.308;5.624;2022-11-20T05:34:05;14.50;;;8.90;;
7195;SDS011;3639;51.308;5.624;2022-11-20T05:36:32;15.10;;;8.80;;
7195;SDS011;3639;51.308;5.624;2022-11-20T05:38:57;15.17;;;9.70;;
7195;SDS011;3639;51.308;5.624;2022-11-20T05:41:23;16.73;;;8.57;;
7195;SDS011;3639;51.308;5.624;2022-11-20T05:43:49;16.43;;;9.77;;
7195;SDS011;3639;51.308;5.624;2022-11-20T05:46:17;14.33;;;9.43;;
7195;SDS011;3639;51.308;5.624;2022-11-20T05:48:45;12.80;;;8.80;;
7195;SDS011;3639;51.308;5.624;2022-11-20T05:51:12;18.60;;;10.83;;
7195;SDS011;3639;51.308;5.624;2022-11-20T05:53:40;14.63;;;9.33;;
7195;SDS011;3639;51.308;5.624;2022-11-20T05:56:09;13.83;;;9.33;;
7195;SDS011;3639;51.308;5.624;2022-11-20T05:58:36;17.93;;;10.80;;
7195;SDS011;3639;51.308;5.624;2022-11-20T06:01:13;13.27;;;10.03;;
7195;SDS011;3639;51.308;5.624;2022-11-20T06:03:42;16.17;;;10.37;;
7195;SDS011;3639;51.308;5.624;2022-11-20T06:06:10;13.27;;;9.60;;
7195;SDS011;3639;51.308;5.624;2022-11-20T06:08:36;13.53;;;9.20;;
7195;SDS011;3639;51.308;5.624;2022-11-20T06:11:03;15.93;;;9.90;;
7195;SDS011;3639;51.308;5.624;2022-11-20T06:13:30;16.47;;;9.53;;
7195;SDS011;3639;51.308;5.624;2022-11-20T06:15:56;18.37;;;9.50;;
7195;SDS011;3639;51.308;5.624;2022-11-20T06:18:21;12.90;;;8.57;;
7195;SDS011;3639;51.308;5.624;2022-11-20T06:20:47;23.83;;;11.33;;
7195;SDS011;3639;51.308;5.624;2022-11-20T06:23:12;18.37;;;9.93;;
7195;SDS011;3639;51.308;5.624;2022-11-20T06:25:39;14.00;;;9.77;;
7195;SDS011;3639;51.308;5.624;2022-11-20T06:28:06;19.63;;;9.50;;
7195;SDS011;3639;51.308;5.624;2022-11-20T06:30:32;12.97;;;8.53;;
7195;SDS011;3639;51.308;5.624;2022-11-20T06:32:57;17.03;;;9.80;;
7195;SDS011;3639;51.308;5.624;2022-11-20T06:35:23;16.97;;;9.83;;
7195;SDS011;3639;51.308;5.624;2022-11-20T06:37:49;13.97;;;8.40;;
7195;SDS011;3639;51.308;5.624;2022-11-20T06:40:14;15.50;;;9.93;;
7195;SDS011;3639;51.308;5.624;2022-11-20T06:42:40;17.23;;;9.30;;
7195;SDS011;3639;51.308;5.624;2022-11-20T06:45:06;15.50;;;9.33;;
7195;SDS011;3639;51.308;5.624;2022-11-20T06:47:32;14.53;;;9.17;;
7195;SDS011;3639;51.308;5.624;2022-11-20T06:49:58;14.30;;;9.20;;
7195;SDS011;3639;51.308;5.624;2022-11-20T06:52:24;15.17;;;8.63;;
7195;SDS011;3639;51.308;5.624;2022-11-20T06:54:49;14.87;;;9.50;;
7195;SDS011;3639;51.308;5.624;2022-11-20T06:57:15;12.93;;;8.97;;
7195;SDS011;3639;51.308;5.624;2022-11-20T06:59:40;14.57;;;9.53;;
7195;SDS011;3639;51.308;5.624;2022-11-20T07:02:09;15.10;;;9.40;;
7195;SDS011;3639;51.308;5.624;2022-11-20T07:04:35;16.80;;;10.17;;
7195;SDS011;3639;51.308;5.624;2022-11-20T07:07:01;17.03;;;9.80;;
7195;SDS011;3639;51.308;5.624;2022-11-20T07:09:27;15.07;;;9.40;;
7195;SDS011;3639;51.308;5.624;2022-11-20T07:11:52;15.67;;;8.93;;
7195;SDS011;3639;51.308;5.624;2022-11-20T07:14:18;18.47;;;10.33;;
7195;SDS011;3639;51.308;5.624;2022-11-20T07:16:43;14.90;;;8.90;;
7195;SDS011;3639;51.308;5.624;2022-11-20T07:19:09;14.37;;;8.93;;
7195;SDS011;3639;51.308;5.624;2022-11-20T07:21:35;19.10;;;9.87;;
7195;SDS011;3639;51.308;5.624;2022-11-20T07:24:00;17.00;;;9.50;;
7195;SDS011;3639;51.308;5.624;2022-11-20T07:26:26;14.30;;;9.67;;
7195;SDS011;3639;51.308;5.624;2022-11-20T07:28:51;21.67;;;11.13;;
7195;SDS011;3639;51.308;5.624;2022-11-20T07:31:17;13.80;;;9.70;;
7195;SDS011;3639;51.308;5.624;2022-11-20T07:33:43;19.13;;;10.43;;
7195;SDS011;3639;51.308;5.624;2022-11-20T07:36:08;19.40;;;10.57;;
7195;SDS011;3639;51.308;5.624;2022-11-20T07:38:34;19.00;;;9.60;;
7195;SDS011;3639;51.308;5.624;2022-11-20T07:40:59;17.53;;;10.67;;
7195;SDS011;3639;51.308;5.624;2022-11-20T07:43:28;19.50;;;9.60;;
7195;SDS011;3639;51.308;5.624;2022-11-20T07:45:59;17.43;;;10.13;;
7195;SDS011;3639;51.308;5.624;2022-11-20T07:48:25;18.53;;;9.83;;
7195;SDS011;3639;51.308;5.624;2022-11-20T07:50:54;16.83;;;10.57;;
7195;SDS011;3639;51.308;5.624;2022-11-20T07:53:20;20.43;;;11.03;;
7195;SDS011;3639;51.308;5.624;2022-11-20T07:55:46;17.63;;;10.13;;
7195;SDS011;3639;51.308;5.624;2022-11-20T07:58:12;16.10;;;9.00;;
7195;SDS011;3639;51.308;5.624;2022-11-20T08:00:39;16.20;;;9.80;;
7195;SDS011;3639;51.308;5.624;2022-11-20T08:03:05;18.47;;;9.60;;
7195;SDS011;3639;51.308;5.624;2022-11-20T08:05:31;22.70;;;10.87;;
7195;SDS011;3639;51.308;5.624;2022-11-20T08:07:56;17.03;;;10.63;;
7195;SDS011;3639;51.308;5.624;2022-11-20T08:10:22;18.10;;;10.07;;
7195;SDS011;3639;51.308;5.624;2022-11-20T08:12:49;19.13;;;10.90;;
7195;SDS011;3639;51.308;5.624;2022-11-20T08:15:34;17.80;;;11.33;;
7195;SDS011;3639;51.308;5.624;2022-11-20T08:18:01;16.20;;;10.80;;
7195;SDS011;3639;51.308;5.624;2022-11-20T08:20:27;16.30;;;9.80;;
7195;SDS011;3639;51.308;5.624;2022-11-20T08:22:57;19.73;;;11.47;;
7195;SDS011;3639;51.308;5.624;2022-11-20T08:25:24;16.30;;;10.97;;
7195;SDS011;3639;51.308;5.624;2022-11-20T08:27:50;18.00;;;10.80;;
7195;SDS011;3639;51.308;5.624;2022-11-20T08:30:16;16.97;;;9.93;;
7195;SDS011;3639;51.308;5.624;2022-11-20T08:32:41;18.30;;;9.87;;
7195;SDS011;3639;51.308;5.624;2022-11-20T08:35:07;17.33;;;10.00;;
7195;SDS011;3639;51.308;5.624;2022-11-20T08:37:33;16.20;;;9.87;;
7195;SDS011;3639;51.308;5.624;2022-11-20T08:39:59;18.27;;;10.57;;
7195;SDS011;3639;51.308;5.624;2022-11-20T08:42:24;21.90;;;11.13;;
7195;SDS011;3639;51.308;5.624;2022-11-20T08:44:50;21.03;;;10.57;;
7195;SDS011;3639;51.308;5.624;2022-11-20T08:47:15;22.97;;;11.60;;
7195;SDS011;3639;51.308;5.624;2022-11-20T08:49:41;25.97;;;12.30;;
7195;SDS011;3639;51.308;5.624;2022-11-20T08:52:06;27.83;;;11.90;;
7195;SDS011;3639;51.308;5.624;2022-11-20T08:54:32;24.57;;;12.43;;
7195;SDS011;3639;51.308;5.624;2022-11-20T08:56:58;31.70;;;12.97;;
7195;SDS011;3639;51.308;5.624;2022-11-20T08:59:23;31.53;;;13.50;;
7195;SDS011;3639;51.308;5.624;2022-11-20T09:01:49;30.83;;;13.60;;
7195;SDS011;3639;51.308;5.624;2022-11-20T09:04:15;27.10;;;13.30;;
7195;SDS011;3639;51.308;5.624;2022-11-20T09:06:40;31.10;;;14.03;;
7195;SDS011;3639;51.308;5.624;2022-11-20T09:09:06;40.83;;;14.70;;
7195;SDS011;3639;51.308;5.624;2022-11-20T09:11:32;35.07;;;13.90;;
7195;SDS011;3639;51.308;5.624;2022-11-20T09:13:57;35.77;;;12.97;;
7195;SDS011;3639;51.308;5.624;2022-11-20T09:16:23;30.90;;;14.47;;
7195;SDS011;3639;51.308;5.624;2022-11-20T09:18:49;32.30;;;14.17;;
7195;SDS011;3639;51.308;5.624;2022-11-20T09:21:15;34.03;;;13.90;;
7195;SDS011;3639;51.308;5.624;2022-11-20T09:23:41;29.97;;;13.57;;
7195;SDS011;3639;51.308;5.624;2022-11-20T09:26:09;35.43;;;14.17;;
7195;SDS011;3639;51.308;5.624;2022-11-20T09:28:36;40.23;;;16.23;;
7195;SDS011;3639;51.308;5.624;2022-11-20T09:31:09;31.47;;;14.93;;
7195;SDS011;3639;51.308;5.624;2022-11-20T09:33:48;33.33;;;14.00;;
7195;SDS011;3639;51.308;5.624;2022-11-20T09:36:14;42.00;;;15.13;;
7195;SDS011;3639;51.308;5.624;2022-11-20T09:38:40;37.77;;;15.13;;
7195;SDS011;3639;51.308;5.624;2022-11-20T09:41:06;31.77;;;14.13;;
7195;SDS011;3639;51.308;5.624;2022-11-20T09:44:02;31.27;;;14.80;;
7195;SDS011;3639;51.308;5.624;2022-11-20T09:52:01;38.40;;;15.37;;
7195;SDS011;3639;51.308;5.624;2022-11-20T09:54:39;38.93;;;15.83;;
7195;SDS011;3639;51.308;5.624;2022-11-20T09:57:10;40.27;;;15.97;;
7195;SDS011;3639;51.308;5.624;2022-11-20T09:59:42;39.33;;;14.93;;
7195;SDS011;3639;51.308;5.624;2022-11-20T10:05:06;34.00;;;13.57;;
7195;SDS011;3639;51.308;5.624;2022-11-20T10:07:56;33.30;;;14.10;;
7195;SDS011;3639;51.308;5.624;2022-11-20T10:10:49;30.37;;;13.43;;
7195;SDS011;3639;51.308;5.624;2022-11-20T10:18:57;26.30;;;12.40;;
7195;SDS011;3639;51.308;5.624;2022-11-20T10:30:24;33.60;;;13.43;;
7195;SDS011;3639;51.308;5.624;2022-11-20T10:32:47;28.93;;;13.80;;
7195;SDS011;3639;51.308;5.624;2022-11-20T10:38:12;35.03;;;14.50;;
7195;SDS011;3639;51.308;5.624;2022-11-20T10:40:44;30.33;;;13.20;;
7195;SDS011;3639;51.308;5.624;2022-11-20T10:43:15;31.43;;;13.80;;
7195;SDS011;3639;51.308;5.624;2022-11-20T10:45:46;29.23;;;13.40;;
7195;SDS011;3639;51.308;5.624;2022-11-20T10:48:31;30.13;;;14.47;;
7195;SDS011;3639;51.308;5.624;2022-11-20T10:51:15;28.37;;;12.30;;
7195;SDS011;3639;51.308;5.624;2022-11-20T10:54:24;30.37;;;14.07;;
7195;SDS011;3639;51.308;5.624;2022-11-20T10:57:17;34.77;;;14.40;;
7195;SDS011;3639;51.308;5.624;2022-11-20T11:00:08;34.60;;;13.27;;
7195;SDS011;3639;51.308;5.624;2022-11-20T11:05:13;30.07;;;13.93;;
7195;SDS011;3639;51.308;5.624;2022-11-20T11:08:01;35.03;;;13.73;;
7195;SDS011;3639;51.308;5.624;2022-11-20T11:13:21;35.87;;;13.63;;
7195;SDS011;3639;51.308;5.624;2022-11-20T11:15:48;31.30;;;13.27;;
7195;SDS011;3639;51.308;5.624;2022-11-20T11:18:23;30.87;;;13.13;;
7195;SDS011;3639;51.308;5.624;2022-11-20T11:20:57;35.80;;;14.63;;
7195;SDS011;3639;51.308;5.624;2022-11-20T11:23:38;28.87;;;14.27;;
7195;SDS011;3639;51.308;5.624;2022-11-20T11:26:26;36.00;;;14.73;;
7195;SDS011;3639;51.308;5.624;2022-11-20T11:29:02;32.30;;;13.73;;
7195;SDS011;3639;51.308;5.624;2022-11-20T11:31:30;29.83;;;14.73;;
7195;SDS011;3639;51.308;5.624;2022-11-20T11:36:32;28.17;;;13.10;;
7195;SDS011;3639;51.308;5.624;2022-11-20T11:39:00;33.17;;;13.53;;
7195;SDS011;3639;51.308;5.624;2022-11-20T11:41:31;33.00;;;14.53;;
7195;SDS011;3639;51.308;5.624;2022-11-20T11:47:02;32.20;;;14.13;;
7195;SDS011;3639;51.308;5.624;2022-11-20T11:49:30;31.80;;;14.97;;
7195;SDS011;3639;51.308;5.624;2022-11-20T11:52:08;36.00;;;14.57;;
7195;SDS011;3639;51.308;5.624;2022-11-20T11:54:48;36.37;;;14.50;;
7195;SDS011;3639;51.308;5.624;2022-11-20T12:00:06;34.07;;;14.57;;
7195;SDS011;3639;51.308;5.624;2022-11-20T12:05:18;40.10;;;14.60;;
7195;SDS011;3639;51.308;5.624;2022-11-20T12:07:58;32.23;;;13.53;;
7195;SDS011;3639;51.308;5.624;2022-11-20T12:10:58;32.97;;;14.77;;
7195;SDS011;3639;51.308;5.624;2022-11-20T12:13:48;34.63;;;14.27;;
7195;SDS011;3639;51.308;5.624;2022-11-20T12:16:28;35.60;;;15.03;;
7195;SDS011;3639;51.308;5.624;2022-11-20T12:19:00;35.03;;;14.73;;
7195;SDS011;3639;51.308;5.624;2022-11-20T12:22:29;39.13;;;14.43;;
7195;SDS011;3639;51.308;5.624;2022-11-20T12:24:42;27.47;;;13.63;;
7195;SDS011;3639;51.308;5.624;2022-11-20T12:30:00;39.00;;;14.90;;
7195;SDS011;3639;51.308;5.624;2022-11-20T12:43:32;32.60;;;13.87;;
7195;SDS011;3639;51.308;5.624;2022-11-20T12:46:45;37.73;;;14.97;;
7195;SDS011;3639;51.308;5.624;2022-11-20T12:55:12;35.03;;;14.87;;
7195;SDS011;3639;51.308;5.624;2022-11-20T12:57:54;36.33;;;14.17;;
7195;SDS011;3639;51.308;5.624;2022-11-20T13:00:21;37.10;;;15.03;;
7195;SDS011;3639;51.308;5.624;2022-11-20T13:05:37;31.83;;;13.87;;
7195;SDS011;3639;51.308;5.624;2022-11-20T13:08:34;36.07;;;14.93;;
7195;SDS011;3639;51.308;5.624;2022-11-20T13:11:09;38.43;;;15.30;;
7195;SDS011;3639;51.308;5.624;2022-11-20T13:16:41;37.53;;;15.87;;
7195;SDS011;3639;51.308;5.624;2022-11-20T13:19:15;32.97;;;13.83;;
7195;SDS011;3639;51.308;5.624;2022-11-20T13:21:46;39.87;;;14.30;;
7195;SDS011;3639;51.308;5.624;2022-11-20T13:26:45;34.37;;;15.50;;
7195;SDS011;3639;51.308;5.624;2022-11-20T13:29:12;29.00;;;13.93;;
7195;SDS011;3639;51.308;5.624;2022-11-20T13:31:47;37.90;;;14.07;;
7195;SDS011;3639;51.308;5.624;2022-11-20T13:34:24;32.80;;;14.43;;
7195;SDS011;3639;51.308;5.624;2022-11-20T13:36:52;35.53;;;15.70;;
7195;SDS011;3639;51.308;5.624;2022-11-20T13:41:56;35.33;;;13.87;;
7195;SDS011;3639;51.308;5.624;2022-11-20T13:44:33;36.13;;;14.97;;
7195;SDS011;3639;51.308;5.624;2022-11-20T13:47:04;35.03;;;14.47;;
7195;SDS011;3639;51.308;5.624;2022-11-20T13:49:45;35.30;;;14.90;;
7195;SDS011;3639;51.308;5.624;2022-11-20T14:00:50;37.77;;;14.97;;
7195;SDS011;3639;51.308;5.624;2022-11-20T14:03:22;39.77;;;15.67;;
7195;SDS011;3639;51.308;5.624;2022-11-20T14:05:51;34.77;;;14.63;;
7195;SDS011;3639;51.308;5.624;2022-11-20T14:08:28;34.43;;;15.10;;
7195;SDS011;3639;51.308;5.624;2022-11-20T14:11:06;32.83;;;14.47;;
7195;SDS011;3639;51.308;5.624;2022-11-20T14:16:23;33.30;;;14.90;;
7195;SDS011;3639;51.308;5.624;2022-11-20T14:18:49;41.50;;;15.33;;
7195;SDS011;3639;51.308;5.624;2022-11-20T14:21:25;35.40;;;13.97;;
7195;SDS011;3639;51.308;5.624;2022-11-20T14:24:18;35.43;;;14.87;;
7195;SDS011;3639;51.308;5.624;2022-11-20T14:26:44;31.57;;;13.70;;
7195;SDS011;3639;51.308;5.624;2022-11-20T14:29:30;41.27;;;14.50;;
7195;SDS011;3639;51.308;5.624;2022-11-20T14:31:59;35.00;;;13.60;;
7195;SDS011;3639;51.308;5.624;2022-11-20T14:34:30;42.57;;;15.27;;
7195;SDS011;3639;51.308;5.624;2022-11-20T14:36:59;36.30;;;14.07;;
7195;SDS011;3639;51.308;5.624;2022-11-20T14:39:29;29.23;;;13.70;;
7195;SDS011;3639;51.308;5.624;2022-11-20T14:41:57;24.97;;;11.80;;
7195;SDS011;3639;51.308;5.624;2022-11-20T14:44:25;37.73;;;14.33;;
7195;SDS011;3639;51.308;5.624;2022-11-20T14:46:53;28.77;;;13.13;;
7195;SDS011;3639;51.308;5.624;2022-11-20T14:49:20;46.00;;;13.77;;
7195;SDS011;3639;51.308;5.624;2022-11-20T14:51:46;34.47;;;13.83;;
7195;SDS011;3639;51.308;5.624;2022-11-20T14:54:13;28.60;;;13.63;;
7195;SDS011;3639;51.308;5.624;2022-11-20T14:56:41;25.67;;;13.20;;
7195;SDS011;3639;51.308;5.624;2022-11-20T14:59:21;31.10;;;13.93;;
7195;SDS011;3639;51.308;5.624;2022-11-20T15:01:58;31.40;;;13.37;;
7195;SDS011;3639;51.308;5.624;2022-11-20T15:04:30;37.60;;;13.90;;
7195;SDS011;3639;51.308;5.624;2022-11-20T15:06:57;35.97;;;14.70;;
7195;SDS011;3639;51.308;5.624;2022-11-20T15:09:24;34.40;;;14.67;;
7195;SDS011;3639;51.308;5.624;2022-11-20T15:11:52;28.73;;;12.30;;
7195;SDS011;3639;51.308;5.624;2022-11-20T15:14:28;37.77;;;14.60;;
7195;SDS011;3639;51.308;5.624;2022-11-20T15:16:57;28.77;;;13.03;;
7195;SDS011;3639;51.308;5.624;2022-11-20T15:19:25;30.33;;;14.40;;
7195;SDS011;3639;51.308;5.624;2022-11-20T15:21:52;36.03;;;12.50;;
7195;SDS011;3639;51.308;5.624;2022-11-20T15:24:18;25.00;;;10.87;;
7195;SDS011;3639;51.308;5.624;2022-11-20T15:26:44;30.77;;;12.33;;
7195;SDS011;3639;51.308;5.624;2022-11-20T15:29:11;24.53;;;11.17;;
7195;SDS011;3639;51.308;5.624;2022-11-20T15:31:39;22.10;;;9.77;;
7195;SDS011;3639;51.308;5.624;2022-11-20T15:34:12;16.53;;;7.67;;
7195;SDS011;3639;51.308;5.624;2022-11-20T15:36:39;18.67;;;8.50;;
7195;SDS011;3639;51.308;5.624;2022-11-20T15:39:06;15.77;;;8.10;;
7195;SDS011;3639;51.308;5.624;2022-11-20T15:41:32;19.60;;;7.70;;
7195;SDS011;3639;51.308;5.624;2022-11-20T15:44:02;13.10;;;7.10;;
7195;SDS011;3639;51.308;5.624;2022-11-20T15:46:29;16.53;;;6.63;;
7195;SDS011;3639;51.308;5.624;2022-11-20T15:49:03;13.00;;;6.80;;
7195;SDS011;3639;51.308;5.624;2022-11-20T15:54:12;9.77;;;5.87;;
7195;SDS011;3639;51.308;5.624;2022-11-20T15:56:39;9.63;;;5.40;;
7195;SDS011;3639;51.308;5.624;2022-11-20T15:59:05;12.37;;;5.83;;
7195;SDS011;3639;51.308;5.624;2022-11-20T16:01:31;6.67;;;4.10;;
7195;SDS011;3639;51.308;5.624;2022-11-20T16:03:56;9.13;;;5.17;;
7195;SDS011;3639;51.308;5.624;2022-11-20T16:06:22;8.30;;;4.27;;
7195;SDS011;3639;51.308;5.624;2022-11-20T16:08:48;8.80;;;3.93;;
7195;SDS011;3639;51.308;5.624;2022-11-20T16:11:14;6.70;;;4.47;;
7195;SDS011;3639;51.308;5.624;2022-11-20T16:13:41;6.37;;;3.70;;
7195;SDS011;3639;51.308;5.624;2022-11-20T16:16:33;5.30;;;3.90;;
7195;SDS011;3639;51.308;5.624;2022-11-20T16:19:00;4.80;;;3.63;;
7195;SDS011;3639;51.308;5.624;2022-11-20T16:21:26;6.63;;;4.07;;
7195;SDS011;3639;51.308;5.624;2022-11-20T16:23:56;4.47;;;3.67;;
7195;SDS011;3639;51.308;5.624;2022-11-20T16:26:23;7.40;;;4.07;;
7195;SDS011;3639;51.308;5.624;2022-11-20T16:28:48;4.70;;;3.63;;
7195;SDS011;3639;51.308;5.624;2022-11-20T16:31:15;4.10;;;3.53;;
7195;SDS011;3639;51.308;5.624;2022-11-20T16:33:43;5.80;;;4.00;;
7195;SDS011;3639;51.308;5.624;2022-11-20T16:36:14;4.83;;;4.23;;
7195;SDS011;3639;51.308;5.624;2022-11-20T16:38:40;5.60;;;3.63;;
7195;SDS011;3639;51.308;5.624;2022-11-20T16:41:07;5.27;;;3.97;;
7195;SDS011;3639;51.308;5.624;2022-11-20T16:43:43;6.07;;;3.97;;
7195;SDS011;3639;51.308;5.624;2022-11-20T16:46:18;7.50;;;4.30;;